createdAt,value
2023-04-16T00:00:04.952Z,885.4
2023-04-16T00:01:48.648Z,878.8
2023-04-16T00:03:32.351Z,868.8
2023-04-16T00:05:16.053Z,868.1
2023-04-16T00:06:59.759Z,868.7
2023-04-16T00:08:43.457Z,868.7
2023-04-16T00:10:27.158Z,870.6
2023-04-16T00:12:10.855Z,872.4
2023-04-16T00:13:54.567Z,873.5
2023-04-16T00:15:38.262Z,874.2
2023-04-16T00:17:21.972Z,870.6
2023-04-16T00:19:05.691Z,869.7
2023-04-16T00:20:49.373Z,871.3
2023-04-16T00:22:33.075Z,872.8
2023-04-16T00:24:16.787Z,871.9
2023-04-16T00:26:00.479Z,871.4
2023-04-16T00:27:44.188Z,871.5
2023-04-16T00:29:27.881Z,874.1
2023-04-16T00:31:11.596Z,873.1
2023-04-16T00:32:55.296Z,867.7
2023-04-16T00:34:38.993Z,865.3
2023-04-16T00:36:22.693Z,870.2
2023-04-16T00:38:06.401Z,875
2023-04-16T00:39:50.099Z,878.3
2023-04-16T00:41:33.806Z,868.9
2023-04-16T00:43:17.506Z,868.5
2023-04-16T00:45:01.219Z,871.3
2023-04-16T00:46:44.916Z,870.3
2023-04-16T00:48:28.610Z,874.1
2023-04-16T00:50:12.312Z,876.5
2023-04-16T00:51:56.022Z,876.4
2023-04-16T00:53:39.713Z,876.1
2023-04-16T00:55:23.417Z,876.5
2023-04-16T00:57:07.123Z,875.6
2023-04-16T00:58:50.822Z,873.2
2023-04-16T01:00:34.528Z,872
2023-04-16T01:02:18.229Z,869.2
2023-04-16T01:04:01.933Z,866.3
2023-04-16T01:05:45.639Z,868.7
2023-04-16T01:07:29.345Z,868.2
2023-04-16T01:09:13.044Z,869
2023-04-16T01:10:56.739Z,868.8
2023-04-16T01:12:40.444Z,868.8
2023-04-16T01:14:24.144Z,866.3
2023-04-16T01:16:07.862Z,864
2023-04-16T01:17:51.559Z,862.9
2023-04-16T01:19:35.275Z,863.7
2023-04-16T01:21:18.955Z,864.4
2023-04-16T01:23:02.670Z,867.5
2023-04-16T01:24:46.363Z,870.4
2023-04-16T01:26:30.061Z,871.1
2023-04-16T01:28:13.774Z,865.1
2023-04-16T01:29:57.470Z,862.3
2023-04-16T01:31:41.184Z,862.7
2023-04-16T01:35:08.588Z,865.5
2023-04-16T01:36:52.296Z,868.3
2023-04-16T01:38:35.987Z,870.4
2023-04-16T01:40:19.683Z,872.6
2023-04-16T01:42:03.388Z,873.4
2023-04-16T01:43:47.105Z,873.4
2023-04-16T01:45:30.811Z,867.9
2023-04-16T01:47:14.503Z,870.2
2023-04-16T01:48:58.210Z,872.8
2023-04-16T01:50:41.931Z,870.9
2023-04-16T01:52:25.608Z,870.3
2023-04-16T01:54:09.309Z,868
2023-04-16T01:55:53.024Z,868.4
2023-04-16T01:57:36.724Z,869.5
2023-04-16T01:59:20.416Z,871.1
2023-04-16T02:01:04.120Z,871.1
2023-04-16T02:02:47.834Z,874.3
2023-04-16T02:04:31.527Z,874.3
2023-04-16T02:06:15.235Z,873.5
2023-04-16T02:07:58.939Z,874.1
2023-04-16T02:09:42.657Z,874.9
2023-04-16T02:11:26.343Z,874.7
2023-04-16T02:13:10.032Z,873.4
2023-04-16T02:14:53.743Z,879.3
2023-04-16T02:16:37.444Z,884.8
2023-04-16T02:18:21.146Z,882.9
2023-04-16T02:20:04.853Z,878.9
2023-04-16T02:21:48.553Z,877.4
2023-04-16T02:23:32.257Z,881.3
2023-04-16T02:25:15.969Z,883.2
2023-04-16T02:26:59.660Z,885.5
2023-04-16T02:28:43.367Z,885.1
2023-04-16T02:30:27.069Z,878.3
2023-04-16T02:32:10.768Z,878.9
2023-04-16T02:33:54.477Z,875.8
2023-04-16T02:35:38.162Z,878.7
2023-04-16T02:37:21.876Z,877.2
2023-04-16T02:39:05.591Z,877.2
2023-04-16T02:40:49.281Z,877.3
2023-04-16T02:42:32.981Z,878.1
2023-04-16T02:44:16.685Z,875.8
2023-04-16T02:46:00.384Z,877
2023-04-16T02:47:44.092Z,878.1
2023-04-16T02:49:27.805Z,878.1
2023-04-16T02:51:11.497Z,877.3
2023-04-16T02:52:55.209Z,882
2023-04-16T02:54:38.899Z,880.3
2023-04-16T02:56:22.612Z,877.2
2023-04-16T02:58:06.307Z,881.9
2023-04-16T02:59:50.000Z,881.6
2023-04-16T03:01:33.718Z,880.3
2023-04-16T03:03:17.421Z,881.2
2023-04-16T03:05:01.122Z,884
2023-04-16T03:06:44.825Z,885
2023-04-16T03:08:28.522Z,883.7
2023-04-16T03:10:12.235Z,883.4
2023-04-16T03:11:55.940Z,886.8
2023-04-16T03:13:39.630Z,893.4
2023-04-16T03:15:23.335Z,898.3
2023-04-16T03:17:07.042Z,898.6
2023-04-16T03:18:50.740Z,896.3
2023-04-16T03:20:34.441Z,895.3
2023-04-16T03:22:18.140Z,895.1
2023-04-16T03:24:01.854Z,892.9
2023-04-16T03:25:45.550Z,884.4
2023-04-16T03:27:29.250Z,882.1
2023-04-16T03:29:12.951Z,882.5
2023-04-16T03:30:56.658Z,887.9
2023-04-16T03:32:40.360Z,887.5
2023-04-16T03:34:24.083Z,887.5
2023-04-16T03:36:07.754Z,890.9
2023-04-16T03:37:51.474Z,897.3
2023-04-16T03:39:35.170Z,898.3
2023-04-16T03:41:18.870Z,897.2
2023-04-16T03:43:02.573Z,898.4
2023-04-16T03:46:29.978Z,902.7
2023-04-16T03:48:13.684Z,903.1
2023-04-16T03:49:57.377Z,900
2023-04-16T03:51:41.083Z,901.7
2023-04-16T03:53:24.788Z,906.2
2023-04-16T03:55:08.490Z,904.4
2023-04-16T03:56:52.192Z,903.6
2023-04-16T03:58:35.903Z,900.7
2023-04-16T04:00:19.592Z,900.8
2023-04-16T04:02:03.307Z,902.7
2023-04-16T04:03:47.002Z,904
2023-04-16T04:05:30.702Z,903.6
2023-04-16T04:07:14.411Z,904.6
2023-04-16T04:08:58.096Z,906
2023-04-16T04:10:41.830Z,905.1
2023-04-16T04:12:25.518Z,899.4
2023-04-16T04:14:09.216Z,900.2
2023-04-16T04:15:52.918Z,902.4
2023-04-16T04:17:36.642Z,905.6
2023-04-16T04:19:20.327Z,906.9
2023-04-16T04:21:04.039Z,910
2023-04-16T04:22:47.724Z,912.2
2023-04-16T04:24:31.443Z,912.5
2023-04-16T04:26:15.141Z,912.2
2023-04-16T04:27:58.839Z,912.5
2023-04-16T04:29:42.539Z,911.8
2023-04-16T04:31:26.250Z,910.3
2023-04-16T04:33:09.945Z,908.7
2023-04-16T04:34:53.655Z,910.3
2023-04-16T04:36:37.363Z,907.6
2023-04-16T04:38:21.062Z,911.5
2023-04-16T04:40:04.759Z,914.1
2023-04-16T04:41:48.450Z,913.1
2023-04-16T04:43:32.159Z,919.4
2023-04-16T04:45:15.878Z,916.1
2023-04-16T04:46:59.557Z,920.9
2023-04-16T04:48:43.273Z,919.8
2023-04-16T04:50:26.974Z,916
2023-04-16T04:52:10.671Z,916.7
2023-04-16T04:53:54.373Z,916.7
2023-04-16T04:55:38.095Z,917.4
2023-04-16T04:57:21.807Z,917.4
2023-04-16T04:59:05.488Z,918.5
2023-04-16T05:00:49.182Z,917.5
2023-04-16T05:02:32.881Z,916.5
2023-04-16T05:06:00.325Z,919.8
2023-04-16T05:07:43.993Z,916.7
2023-04-16T05:09:27.693Z,919.8
2023-04-16T05:11:11.407Z,919.3
2023-04-16T05:12:55.113Z,917.3
2023-04-16T05:14:38.804Z,919.1
2023-04-16T05:16:22.509Z,918.1
2023-04-16T05:18:06.212Z,915.6
2023-04-16T05:19:49.920Z,918.9
2023-04-16T05:21:33.623Z,918.9
2023-04-16T05:23:17.315Z,920.6
2023-04-16T05:25:01.036Z,919.8
2023-04-16T05:26:44.781Z,920.5
2023-04-16T05:28:28.423Z,922
2023-04-16T05:30:12.135Z,923.9
2023-04-16T05:31:55.829Z,927.1
2023-04-16T05:33:39.547Z,933.5
2023-04-16T05:35:23.246Z,931.3
2023-04-16T05:37:06.943Z,934.8
2023-04-16T05:38:50.651Z,934.1
2023-04-16T05:40:34.349Z,934.4
2023-04-16T05:42:18.046Z,932.2
2023-04-16T05:44:01.760Z,936
2023-04-16T05:45:45.489Z,935.9
2023-04-16T05:47:29.156Z,934.3
2023-04-16T05:49:12.862Z,936.3
2023-04-16T05:50:56.564Z,943.4
2023-04-16T05:52:40.260Z,941.6
2023-04-16T05:54:23.969Z,943.1
2023-04-16T05:56:07.664Z,943.6
2023-04-16T05:57:51.451Z,945.5
2023-04-16T05:59:35.084Z,951.3
2023-04-16T06:01:18.787Z,948.1
2023-04-16T06:03:02.526Z,945.9
2023-04-16T06:04:46.186Z,950.3
2023-04-16T06:06:29.891Z,952.7
2023-04-16T06:08:13.603Z,950.4
2023-04-16T06:09:57.300Z,950.9
2023-04-16T06:11:41.000Z,952.7
2023-04-16T06:13:24.731Z,949.3
2023-04-16T06:15:08.392Z,951
2023-04-16T06:16:52.105Z,949.4
2023-04-16T06:18:35.808Z,946.6
2023-04-16T06:20:19.517Z,946
2023-04-16T06:22:03.224Z,948.7
2023-04-16T06:23:46.929Z,952.3
2023-04-16T06:25:30.610Z,954.5
2023-04-16T06:27:14.336Z,955.8
2023-04-16T06:28:58.043Z,956.1
2023-04-16T06:30:41.736Z,955.2
2023-04-16T06:32:25.437Z,955.6
2023-04-16T06:34:09.176Z,959.6
2023-04-16T06:35:52.842Z,960.1
2023-04-16T06:37:36.543Z,959.7
2023-04-16T06:39:20.249Z,956.9
2023-04-16T06:41:03.956Z,958.2
2023-04-16T06:42:47.676Z,962.9
2023-04-16T06:44:31.362Z,966.6
2023-04-16T06:46:15.057Z,963.1
2023-04-16T06:47:58.756Z,966.2
2023-04-16T06:49:42.513Z,1049.3
2023-04-16T06:51:26.160Z,1165.8
2023-04-16T06:53:09.862Z,1170
2023-04-16T06:54:53.567Z,1140.7
2023-04-16T06:56:37.264Z,1138.7
2023-04-16T06:58:20.971Z,1127.4
2023-04-16T07:00:04.672Z,1079.7
2023-04-16T07:01:48.370Z,1086.2
2023-04-16T07:03:32.096Z,1091
2023-04-16T07:05:15.782Z,1092.3
2023-04-16T07:06:59.473Z,1090.1
2023-04-16T07:08:43.177Z,1089.8
2023-04-16T07:10:26.890Z,1091.6
2023-04-16T07:12:10.598Z,1089.7
2023-04-16T07:13:54.384Z,1094.8
2023-04-16T07:15:37.984Z,1093.4
2023-04-16T07:17:21.689Z,1090.8
2023-04-16T07:19:05.405Z,1091.1
2023-04-16T07:20:49.103Z,1105.4
2023-04-16T07:22:32.915Z,1111.6
2023-04-16T07:24:16.560Z,1109.7
2023-04-16T07:26:00.212Z,1108.7
2023-04-16T07:27:43.987Z,1108.9
2023-04-16T07:29:27.614Z,1107.4
2023-04-16T07:31:11.342Z,1106.1
2023-04-16T07:32:55.022Z,1111
2023-04-16T07:34:38.724Z,1112.1
2023-04-16T07:36:22.424Z,1116.7
2023-04-16T07:38:06.142Z,1118.7
2023-04-16T07:39:49.828Z,1121.5
2023-04-16T07:41:33.535Z,1128.8
2023-04-16T07:43:17.230Z,1134.3
2023-04-16T07:45:00.993Z,1133.8
2023-04-16T07:46:44.643Z,1135.2
2023-04-16T07:48:28.346Z,1136.2
2023-04-16T07:50:12.060Z,1137
2023-04-16T07:51:55.770Z,1134.7
2023-04-16T07:53:39.451Z,1136.4
2023-04-16T07:57:06.849Z,1143.2
2023-04-16T07:58:50.555Z,1137.5
2023-04-16T08:00:34.262Z,1133.4
2023-04-16T08:02:17.954Z,1125.5
2023-04-16T08:04:01.660Z,1134.9
2023-04-16T08:05:45.369Z,1161.1
2023-04-16T08:07:29.082Z,1163.7
2023-04-16T08:09:12.770Z,1161.4
2023-04-16T08:10:56.478Z,1160.2
2023-04-16T08:12:40.181Z,1151
2023-04-16T08:14:23.877Z,1143.6
2023-04-16T08:16:07.578Z,1138.9
2023-04-16T08:17:51.294Z,1137.1
2023-04-16T08:19:34.996Z,1136.8
2023-04-16T08:21:18.691Z,1137.8
2023-04-16T08:23:02.417Z,1138.7
2023-04-16T08:24:46.104Z,1138.8
2023-04-16T08:26:29.791Z,1135.2
2023-04-16T08:28:13.500Z,1131.3
2023-04-16T08:29:57.211Z,1125.3
2023-04-16T08:31:40.903Z,1119.6
2023-04-16T08:33:24.618Z,1121.8
2023-04-16T08:35:08.300Z,1119.6
2023-04-16T08:36:52.015Z,1117.7
2023-04-16T08:38:35.734Z,1116.9
2023-04-16T08:40:19.443Z,1117.8
2023-04-16T08:42:03.118Z,1119.8
2023-04-16T08:43:46.815Z,1123.2
2023-04-16T08:45:30.526Z,1123.5
2023-04-16T08:47:14.301Z,1120.2
2023-04-16T08:48:57.914Z,1122.4
2023-04-16T08:50:41.617Z,1121
2023-04-16T08:52:25.336Z,1124.3
2023-04-16T08:54:09.026Z,1126.8
2023-04-16T08:55:52.777Z,1128.5
2023-04-16T08:57:36.427Z,1128.3
2023-04-16T08:59:20.134Z,1128.7
2023-04-16T09:01:03.841Z,1131.2
2023-04-16T09:02:47.532Z,1132.4
2023-04-16T09:04:31.250Z,1131.2
2023-04-16T09:06:14.943Z,1126.9
2023-04-16T09:07:58.635Z,1124.9
2023-04-16T09:09:42.350Z,1122.7
2023-04-16T09:11:26.043Z,1126.9
2023-04-16T09:13:09.754Z,1132.1
2023-04-16T09:14:53.459Z,1129.4
2023-04-16T09:16:37.164Z,1130.2
2023-04-16T09:20:04.565Z,1126.2
2023-04-16T09:21:48.259Z,1126
2023-04-16T09:23:31.972Z,1126.8
2023-04-16T09:25:15.669Z,1125.7
2023-04-16T09:26:59.393Z,1124.5
2023-04-16T09:28:43.082Z,1115.6
2023-04-16T09:30:26.773Z,1112.8
2023-04-16T09:32:10.481Z,1104.7
2023-04-16T09:33:54.191Z,1102.9
2023-04-16T09:35:37.883Z,1102
2023-04-16T09:37:21.588Z,1101
2023-04-16T09:39:05.297Z,1100.3
2023-04-16T09:40:49.002Z,1100.2
2023-04-16T09:42:32.727Z,1095.5
2023-04-16T09:44:16.396Z,1093.1
2023-04-16T09:46:00.114Z,1090.5
2023-04-16T09:47:43.979Z,1093.7
2023-04-16T09:49:27.513Z,1363.3
2023-04-16T09:51:11.218Z,1686.1
2023-04-16T09:52:54.918Z,1433.6
2023-04-16T09:54:38.621Z,1260.8
2023-04-16T09:56:22.331Z,1336.4
2023-04-16T09:58:06.021Z,1349.1
2023-04-16T09:59:49.727Z,1368.4
2023-04-16T10:01:33.434Z,1386.6
2023-04-16T10:03:17.123Z,1403.2
2023-04-16T10:05:00.836Z,1392.3
2023-04-16T10:06:44.542Z,1394.6
2023-04-16T10:08:28.232Z,1395.8
2023-04-16T10:10:11.958Z,1389.1
2023-04-16T10:11:55.733Z,1392.1
2023-04-16T10:13:39.348Z,1391.1
2023-04-16T10:15:23.056Z,1393
2023-04-16T10:17:06.751Z,1390.6
2023-04-16T10:18:50.457Z,1393.7
2023-04-16T10:20:34.167Z,1388.2
2023-04-16T10:22:17.866Z,1386.2
2023-04-16T10:24:01.585Z,1384.9
2023-04-16T10:25:45.295Z,1383.1
2023-04-16T10:27:28.965Z,1386.1
2023-04-16T10:29:12.692Z,1385
2023-04-16T10:30:56.379Z,1381.5
2023-04-16T10:32:40.076Z,1375.2
2023-04-16T10:34:23.776Z,1375
2023-04-16T10:36:07.478Z,1379.5
2023-04-16T10:37:51.315Z,1381
2023-04-16T10:39:34.958Z,1381.3
2023-04-16T10:41:18.620Z,1379
2023-04-16T10:43:02.295Z,1377.5
2023-04-16T10:44:46.105Z,1380.1
2023-04-16T10:46:29.709Z,1383
2023-04-16T10:48:13.415Z,1383.1
2023-04-16T10:49:57.124Z,1382.7
2023-04-16T10:51:40.896Z,1379.9
2023-04-16T10:53:24.534Z,1379.1
2023-04-16T10:56:51.928Z,1366.4
2023-04-16T10:58:35.610Z,1362.4
2023-04-16T11:00:19.318Z,1347.7
2023-04-16T11:02:03.027Z,1352.9
2023-04-16T11:03:46.733Z,1347
2023-04-16T11:05:30.434Z,1343.4
2023-04-16T11:07:14.130Z,1370.2
2023-04-16T11:08:57.869Z,1400.2
2023-04-16T11:10:41.534Z,1397
2023-04-16T11:12:25.259Z,1393.2
2023-04-16T11:14:08.937Z,1386.1
2023-04-16T11:15:52.643Z,1381.7
2023-04-16T11:17:36.358Z,1379.3
2023-04-16T11:19:20.047Z,1376.9
2023-04-16T11:21:03.743Z,1377.1
2023-04-16T11:22:47.451Z,1377
2023-04-16T11:24:31.143Z,1369.7
2023-04-16T11:26:14.849Z,1363.6
2023-04-16T11:27:58.558Z,1361.3
2023-04-16T11:29:42.270Z,1355.1
2023-04-16T11:31:25.963Z,1346.6
2023-04-16T11:33:09.847Z,1338.6
2023-04-16T11:34:53.372Z,1336.1
2023-04-16T11:36:37.071Z,1329.8
2023-04-16T11:38:20.772Z,1324
2023-04-16T11:40:04.479Z,1317.5
2023-04-16T11:41:48.287Z,1311.8
2023-04-16T11:43:31.879Z,1309.8
2023-04-16T11:45:15.579Z,1400.6
2023-04-16T11:46:59.287Z,1418
2023-04-16T11:48:42.993Z,1412.1
2023-04-16T11:50:26.685Z,1414
2023-04-16T11:52:10.455Z,1386.3
2023-04-16T11:53:54.103Z,1382.5
2023-04-16T11:55:37.802Z,1377.4
2023-04-16T11:57:21.518Z,1373.6
2023-04-16T11:59:05.196Z,1369.7
2023-04-16T12:00:48.912Z,1362.8
2023-04-16T12:02:32.620Z,1358.3
2023-04-16T12:04:16.306Z,1343.3
2023-04-16T12:06:00.027Z,1337.4
2023-04-16T12:07:43.738Z,1330.1
2023-04-16T12:09:27.448Z,1325.8
2023-04-16T12:11:11.127Z,1321
2023-04-16T12:12:54.830Z,1317.9
2023-04-16T12:14:38.526Z,1313.5
2023-04-16T12:16:22.310Z,1312.8
2023-04-16T12:18:05.931Z,1314.7
2023-04-16T12:19:49.636Z,1314.9
2023-04-16T12:21:33.346Z,1308.8
2023-04-16T12:23:17.035Z,1303.3
2023-04-16T12:25:00.789Z,1298.1
2023-04-16T12:26:44.451Z,1293.4
2023-04-16T12:28:28.152Z,1290.2
2023-04-16T12:30:11.850Z,1290.2
2023-04-16T12:31:55.560Z,1282.9
2023-04-16T12:33:39.269Z,1279.7
2023-04-16T12:35:22.964Z,1275.9
2023-04-16T12:37:06.653Z,1277.6
2023-04-16T12:38:50.365Z,1279
2023-04-16T12:40:34.071Z,1277.6
2023-04-16T12:42:17.772Z,1276.6
2023-04-16T12:44:01.479Z,1274.1
2023-04-16T12:45:45.225Z,1271.3
2023-04-16T12:47:28.875Z,1267.3
2023-04-16T12:49:12.587Z,1265.7
2023-04-16T12:50:56.293Z,1260.3
2023-04-16T12:52:39.993Z,1258.6
2023-04-16T12:54:23.709Z,1255.8
2023-04-16T12:56:07.395Z,1247.8
2023-04-16T12:57:51.143Z,1245.3
2023-04-16T12:59:34.796Z,1244
2023-04-16T13:01:18.493Z,1243
2023-04-16T13:03:02.199Z,1238.5
2023-04-16T13:04:45.898Z,1232.1
2023-04-16T13:06:29.620Z,1232.7
2023-04-16T13:08:13.337Z,1227.9
2023-04-16T13:09:57.016Z,1219.9
2023-04-16T13:11:40.713Z,1213.7
2023-04-16T13:13:24.412Z,1207.6
2023-04-16T13:15:08.120Z,1208.9
2023-04-16T13:16:51.825Z,1208.6
2023-04-16T13:18:35.531Z,1203.2
2023-04-16T13:20:19.230Z,1202.8
2023-04-16T13:22:02.989Z,1201.8
2023-04-16T13:23:46.633Z,1196
2023-04-16T13:25:30.337Z,1189.9
2023-04-16T13:27:14.082Z,1187.3
2023-04-16T13:28:57.763Z,1181.4
2023-04-16T13:30:41.456Z,1179.7
2023-04-16T13:32:25.163Z,1174.5
2023-04-16T13:34:08.921Z,1170.2
2023-04-16T13:35:52.634Z,1168.3
2023-04-16T13:37:36.294Z,1164
2023-04-16T13:39:20.116Z,1157.3
2023-04-16T13:41:03.676Z,1152.7
2023-04-16T13:42:47.472Z,1150.6
2023-04-16T13:44:31.072Z,1150.8
2023-04-16T13:46:14.935Z,1152
2023-04-16T13:47:58.474Z,1148.7
2023-04-16T13:49:42.165Z,1141.9
2023-04-16T13:51:25.860Z,1146.8
2023-04-16T13:53:09.576Z,1149.7
2023-04-16T13:54:53.253Z,1147.8
2023-04-16T13:56:36.975Z,1142.9
2023-04-16T13:58:20.705Z,1138.7
2023-04-16T14:00:04.368Z,1137.6
2023-04-16T14:01:48.104Z,1138.4
2023-04-16T14:03:31.785Z,1135.4
2023-04-16T14:05:15.490Z,1131.3
2023-04-16T14:06:59.200Z,1131.3
2023-04-16T14:08:42.880Z,1129.5
2023-04-16T14:10:26.584Z,1128.4
2023-04-16T14:12:10.303Z,1127.6
2023-04-16T14:13:53.982Z,1124.4
2023-04-16T14:15:37.692Z,1118.7
2023-04-16T14:17:21.393Z,1112.5
2023-04-16T14:19:05.090Z,1113.8
2023-04-16T14:20:48.806Z,1109.3
2023-04-16T14:22:32.499Z,1101.8
2023-04-16T14:24:16.199Z,1096.6
2023-04-16T14:25:59.910Z,1092.4
2023-04-16T14:27:43.655Z,1091.6
2023-04-16T14:29:27.327Z,1092.1
2023-04-16T14:31:11.034Z,1091.3
2023-04-16T14:32:54.724Z,1090.7
2023-04-16T14:34:38.423Z,1086.9
2023-04-16T14:36:22.143Z,1083
2023-04-16T14:38:05.826Z,1082.1
2023-04-16T14:39:49.525Z,1078
2023-04-16T14:41:33.227Z,1064.3
2023-04-16T14:43:16.934Z,1065.4
2023-04-16T14:45:00.643Z,1067.3
2023-04-16T14:46:44.336Z,1066.8
2023-04-16T14:48:28.085Z,1065.9
2023-04-16T14:50:11.746Z,1064.7
2023-04-16T14:51:55.450Z,1064.5
2023-04-16T14:53:39.165Z,1061.3
2023-04-16T14:55:22.850Z,1057.1
2023-04-16T14:57:06.561Z,1050.3
2023-04-16T14:58:50.259Z,1050.2
2023-04-16T15:00:33.961Z,1050.3
2023-04-16T15:02:17.696Z,1054
2023-04-16T15:04:01.355Z,1054
2023-04-16T15:05:45.059Z,1052
2023-04-16T15:07:28.770Z,1050.2
2023-04-16T15:09:12.472Z,1046.1
2023-04-16T15:10:56.176Z,1043.7
2023-04-16T15:12:39.927Z,1039.4
2023-04-16T15:14:23.586Z,1035.8
2023-04-16T15:16:07.293Z,1034.7
2023-04-16T15:17:50.997Z,1032.6
2023-04-16T15:19:34.686Z,1034.8
2023-04-16T15:21:18.402Z,1034.9
2023-04-16T15:23:02.105Z,1033.3
2023-04-16T15:24:45.826Z,1031
2023-04-16T15:26:29.499Z,1032.8
2023-04-16T15:28:13.200Z,1033.9
2023-04-16T15:29:56.958Z,1033
2023-04-16T15:31:40.606Z,1030.5
2023-04-16T15:33:24.322Z,1025.1
2023-04-16T15:35:08.018Z,1020.5
2023-04-16T15:36:51.717Z,1015.7
2023-04-16T15:38:35.419Z,1011.9
2023-04-16T15:40:19.148Z,1004.2
2023-04-16T15:42:02.819Z,1007.3
2023-04-16T15:43:46.525Z,1009.3
2023-04-16T15:45:30.222Z,1006.3
2023-04-16T15:47:13.933Z,1005.3
2023-04-16T15:48:57.622Z,1005.5
2023-04-16T15:50:41.337Z,1002.1
2023-04-16T15:52:25.048Z,1000.1
2023-04-16T15:54:08.830Z,997.2
2023-04-16T15:55:52.450Z,989.1
2023-04-16T15:57:36.148Z,990.4
2023-04-16T15:59:19.852Z,985.8
2023-04-16T16:01:03.565Z,989.4
2023-04-16T16:02:47.268Z,987.4
2023-04-16T16:04:30.979Z,984.2
2023-04-16T16:06:14.668Z,981.8
2023-04-16T16:07:58.368Z,978.6
2023-04-16T16:09:42.072Z,975.5
2023-04-16T16:11:25.769Z,974.2
2023-04-16T16:13:09.474Z,972.9
2023-04-16T16:14:53.176Z,970.6
2023-04-16T16:16:36.931Z,974.1
2023-04-16T16:18:20.581Z,970.9
2023-04-16T16:20:04.289Z,963.8
2023-04-16T16:21:47.982Z,963.1
2023-04-16T16:23:31.695Z,963.8
2023-04-16T16:25:15.399Z,962.2
2023-04-16T16:26:59.088Z,956.3
2023-04-16T16:28:42.793Z,957.1
2023-04-16T16:30:26.498Z,954.2
2023-04-16T16:32:10.198Z,952.2
2023-04-16T16:33:53.900Z,950.3
2023-04-16T16:35:37.607Z,949.8
2023-04-16T16:37:21.303Z,946.8
2023-04-16T16:39:05.008Z,945.3
2023-04-16T16:40:48.705Z,947.3
2023-04-16T16:42:32.423Z,945.1
2023-04-16T16:44:16.107Z,939.1
2023-04-16T16:45:59.825Z,934.7
2023-04-16T16:47:43.524Z,934.4
2023-04-16T16:49:27.244Z,932.7
2023-04-16T16:51:10.923Z,930.2
2023-04-16T16:52:54.634Z,934.4
2023-04-16T16:54:38.335Z,931.9
2023-04-16T16:56:22.049Z,929.8
2023-04-16T16:58:05.734Z,930.3
2023-04-16T16:59:49.443Z,928.9
2023-04-16T17:01:33.143Z,924.6
2023-04-16T17:03:16.848Z,921.3
2023-04-16T17:05:00.551Z,916.9
2023-04-16T17:06:44.273Z,913.2
2023-04-16T17:08:27.949Z,910.8
2023-04-16T17:10:11.658Z,907.5
2023-04-16T17:11:55.356Z,905
2023-04-16T17:13:39.076Z,905.2
2023-04-16T17:15:22.831Z,903.6
2023-04-16T17:17:06.461Z,903.7
2023-04-16T17:18:50.166Z,904.9
2023-04-16T17:20:33.880Z,903.4
2023-04-16T17:22:17.639Z,899.5
2023-04-16T17:24:01.281Z,899.6
2023-04-16T17:25:44.971Z,898.7
2023-04-16T17:27:28.684Z,895.4
2023-04-16T17:29:12.390Z,892.5
2023-04-16T17:30:56.087Z,890.9
2023-04-16T17:32:39.843Z,887.2
2023-04-16T17:34:23.500Z,890.2
2023-04-16T17:36:07.197Z,891.9
2023-04-16T17:37:50.899Z,889.9
2023-04-16T17:39:34.601Z,886
2023-04-16T17:41:18.303Z,885.7
2023-04-16T17:43:02.016Z,883.1
2023-04-16T17:44:45.695Z,879.9
2023-04-16T17:46:29.422Z,878.9
2023-04-16T17:48:13.117Z,873.5
2023-04-16T17:49:56.852Z,870.3
2023-04-16T17:51:40.512Z,870.9
2023-04-16T17:53:24.228Z,870.5
2023-04-16T17:55:07.919Z,872.4
2023-04-16T17:56:51.631Z,877.4
2023-04-16T17:58:35.323Z,879.4
2023-04-16T18:00:19.030Z,878.7
2023-04-16T18:02:02.734Z,874.2
2023-04-16T18:03:46.428Z,875.9
2023-04-16T18:05:30.138Z,876.7
2023-04-16T18:07:13.863Z,877.8
2023-04-16T18:08:57.540Z,877.5
2023-04-16T18:10:41.250Z,883.6
2023-04-16T18:12:24.939Z,885.2
2023-04-16T18:14:08.665Z,886.9
2023-04-16T18:15:52.356Z,885.1
2023-04-16T18:17:36.048Z,879
2023-04-16T18:19:19.772Z,877.4
2023-04-16T18:21:03.463Z,878.6
2023-04-16T18:22:47.154Z,882.1
2023-04-16T18:24:30.853Z,885
2023-04-16T18:26:14.559Z,883.4
2023-04-16T18:27:58.260Z,886.7
2023-04-16T18:29:41.976Z,886.8
2023-04-16T18:31:25.670Z,888.2
2023-04-16T18:33:09.366Z,888.6
2023-04-16T18:34:53.138Z,890.5
2023-04-16T18:36:36.778Z,893
2023-04-16T18:38:20.481Z,895.9
2023-04-16T18:40:04.173Z,895.6
2023-04-16T18:41:47.885Z,893.6
2023-04-16T18:43:31.585Z,891.4
2023-04-16T18:45:15.286Z,893.2
2023-04-16T18:46:59.020Z,898
2023-04-16T18:48:42.693Z,894.9
2023-04-16T18:50:26.387Z,896.7
2023-04-16T18:52:10.087Z,896.4
2023-04-16T18:53:53.838Z,896.9
2023-04-16T18:55:37.503Z,894.7
2023-04-16T18:57:21.228Z,895.7
2023-04-16T18:59:04.906Z,898.6
2023-04-16T19:00:48.602Z,898.2
2023-04-16T19:02:32.325Z,895.6
2023-04-16T19:04:16.013Z,891.4
2023-04-16T19:05:59.740Z,888.7
2023-04-16T19:07:43.433Z,887.8
2023-04-16T19:09:27.196Z,887.9
2023-04-16T19:11:10.824Z,891.4
2023-04-16T19:12:54.520Z,889.7
2023-04-16T19:14:38.237Z,885.9
2023-04-16T19:16:21.943Z,885.4
2023-04-16T19:18:05.644Z,887.4
2023-04-16T19:19:49.420Z,880.1
2023-04-16T19:21:33.041Z,879.8
2023-04-16T19:23:16.798Z,883.1
2023-04-16T19:25:00.465Z,879.1
2023-04-16T19:26:44.145Z,875.4
2023-04-16T19:28:27.848Z,873.1
2023-04-16T19:30:11.559Z,869.1
2023-04-16T19:31:55.253Z,873.2
2023-04-16T19:33:38.958Z,870.2
2023-04-16T19:35:22.737Z,867.9
2023-04-16T19:37:06.387Z,861.4
2023-04-16T19:38:50.066Z,866.4
2023-04-16T19:40:33.771Z,863.9
2023-04-16T19:42:17.502Z,857.9
2023-04-16T19:44:01.197Z,854.2
2023-04-16T19:45:44.869Z,854.1
2023-04-16T19:47:28.575Z,856.8
2023-04-16T19:49:12.350Z,856.6
2023-04-16T19:50:55.980Z,855.2
2023-04-16T19:52:39.826Z,854.8
2023-04-16T19:56:07.105Z,853.6
2023-04-16T19:57:50.820Z,854.5
2023-04-16T19:59:34.506Z,849.4
2023-04-16T20:01:18.203Z,849.2
2023-04-16T20:03:01.912Z,851.1
2023-04-16T20:04:45.668Z,853.2
2023-04-16T20:06:29.328Z,855.3
2023-04-16T20:08:13.008Z,857.2
2023-04-16T20:11:40.416Z,856.5
2023-04-16T20:13:24.117Z,854.8
2023-04-16T20:15:07.822Z,853
2023-04-16T20:16:51.526Z,851.8
2023-04-16T20:18:35.220Z,851.6
2023-04-16T20:20:19.001Z,850.8
2023-04-16T20:22:02.627Z,849.3
2023-04-16T20:23:46.329Z,847.9
2023-04-16T20:25:30.035Z,849.3
2023-04-16T20:27:13.730Z,849.1
2023-04-16T20:28:57.429Z,890.8
2023-04-16T20:30:41.142Z,907.2
2023-04-16T20:32:24.865Z,902.4
2023-04-16T20:34:08.564Z,898.2
2023-04-16T20:35:52.245Z,891.7
2023-04-16T20:37:35.936Z,884.8
2023-04-16T20:39:19.649Z,884.3
2023-04-16T20:41:03.414Z,883.2
2023-04-16T20:42:47.075Z,887.5
2023-04-16T20:44:30.798Z,886.1
2023-04-16T20:46:14.557Z,885.7
2023-04-16T20:47:58.202Z,882.9
2023-04-16T20:49:41.884Z,884.9
2023-04-16T20:51:25.583Z,884.4
2023-04-16T20:53:09.272Z,886.7
2023-04-16T20:54:53.020Z,897.7
2023-04-16T20:56:36.697Z,910.1
2023-04-16T20:58:20.386Z,914.4
2023-04-16T21:00:04.093Z,914.5
2023-04-16T21:01:47.795Z,911.8
2023-04-16T21:03:31.666Z,909.5
2023-04-16T21:05:15.255Z,907.6
2023-04-16T21:06:58.898Z,909.2
2023-04-16T21:08:42.602Z,910.4
2023-04-16T21:10:26.390Z,912.4
2023-04-16T21:12:10.014Z,908.3
2023-04-16T21:13:53.705Z,907
2023-04-16T21:15:37.412Z,903.2
2023-04-16T21:17:21.123Z,899.9
2023-04-16T21:19:04.806Z,901.3
2023-04-16T21:20:48.521Z,903.5
2023-04-16T21:22:32.236Z,901
2023-04-16T21:24:15.946Z,901.1
2023-04-16T21:25:59.637Z,900.3
2023-04-16T21:27:43.326Z,904
2023-04-16T21:29:27.040Z,902.8
2023-04-16T21:31:10.736Z,904.9
2023-04-16T21:32:54.431Z,905
2023-04-16T21:34:38.152Z,910.1
2023-04-16T21:36:21.846Z,961.1
2023-04-16T21:39:49.251Z,958.3
2023-04-16T21:41:32.961Z,956.6
2023-04-16T21:43:16.649Z,956.8
2023-04-16T21:45:00.365Z,954.9
2023-04-16T21:46:44.070Z,947
2023-04-16T21:48:27.773Z,941.2
2023-04-16T21:50:11.461Z,943.7
2023-04-16T21:51:55.171Z,939.4
2023-04-16T21:53:38.870Z,938.4
2023-04-16T21:55:22.593Z,939.8
2023-04-16T21:57:06.280Z,938.9
2023-04-16T21:58:49.982Z,934.9
2023-04-16T22:00:33.684Z,934.8
2023-04-16T22:02:17.390Z,934.9
2023-04-16T22:04:01.092Z,934.1
2023-04-16T22:05:44.795Z,933.8
2023-04-16T22:07:28.499Z,933.3
2023-04-16T22:09:12.250Z,932.4
2023-04-16T22:10:55.903Z,933.6
2023-04-16T22:12:39.610Z,950
2023-04-16T22:14:23.309Z,967.2
2023-04-16T22:16:07.003Z,971.2
2023-04-16T22:17:50.752Z,971.8
2023-04-16T22:19:34.412Z,966.8